Time;durP1;ratioP1;P1;durP2;ratioP2;P2;SDS_P1;SDS_P2;PMS_P1;PMS_P2;Temp;Humidity;BMP_temperature;BMP_pressure;BME280_temperature;BME280_humidity;BME280_pressure;Samples;Min_cycle;Max_cycle;Signal;HPM_P1;HPM_P2
2021/12/14 00:01:17;;;;;;;3.20;1.52;;;15.00;81.80;;;;;;5065218;28;45193;-75
2021/12/14 00:03:49;;;;;;;3.72;1.67;;;15.10;82.80;;;;;;5063490;28;47121;-75
2021/12/14 00:06:19;;;;;;;4.32;1.60;;;15.20;82.80;;;;;;5066642;28;46602;-75
2021/12/14 00:08:56;;;;;;;1.83;1.33;;;15.20;79.80;;;;;;5067861;28;45348;-75
2021/12/14 00:11:36;;;;;;;4.15;1.65;;;15.00;82.60;;;;;;5077683;28;45339;-75
2021/12/14 00:14:26;;;;;;;4.07;1.60;;;14.80;82.60;;;;;;5064036;28;47360;-75
2021/12/14 00:16:57;;;;;;;5.85;1.60;;;14.70;83.00;;;;;;5070363;28;45323;-75
2021/12/14 00:19:27;;;;;;;9.48;1.85;;;15.20;82.20;;;;;;5069195;28;45325;-75
2021/12/14 00:22:02;;;;;;;3.28;1.40;;;15.30;80.70;;;;;;5065900;28;45489;-75
2021/12/14 00:24:28;;;;;;;5.22;1.77;;;15.30;81.00;;;;;;5065178;28;45268;-75
2021/12/14 00:26:58;;;;;;;2.83;1.55;;;15.30;79.80;;;;;;5066109;28;46388;-75
2021/12/14 00:29:28;;;;;;;3.33;1.50;;;15.40;81.00;;;;;;5066061;28;45477;-75
2021/12/14 00:31:58;;;;;;;3.53;1.67;;;15.50;81.60;;;;;;5060281;28;45367;-75
2021/12/14 00:34:36;;;;;;;4.85;1.60;;;15.40;79.60;;;;;;5061529;28;46083;-74
2021/12/14 00:37:05;;;;;;;3.20;1.70;;;15.40;80.60;;;;;;5065968;28;45319;-74
2021/12/14 00:39:32;;;;;;;9.43;1.85;;;15.20;80.60;;;;;;5066757;28;45246;-74
2021/12/14 00:41:59;;;;;;;5.85;1.60;;;14.90;81.10;;;;;;5065753;28;45183;-74
2021/12/14 00:44:26;;;;;;;2.65;1.60;;;14.90;81.50;;;;;;5066526;28;45412;-74
2021/12/14 00:46:53;;;;;;;4.22;1.90;;;15.00;82.60;;;;;;5066672;28;45315;-74
2021/12/14 00:49:20;;;;;;;3.67;1.50;;;14.90;81.60;;;;;;5066869;28;45300;-74
2021/12/14 00:51:50;;;;;;;7.72;1.67;;;15.00;82.20;;;;;;5066217;28;45340;-75
2021/12/14 00:54:18;;;;;;;3.70;1.90;;;15.20;81.20;;;;;;5066076;28;45532;-75
2021/12/14 00:56:47;;;;;;;3.25;1.50;;;15.20;79.20;;;;;;5065648;28;45744;-75
2021/12/14 00:59:14;;;;;;;6.25;1.55;;;15.20;81.40;;;;;;5075217;28;45287;-75
2021/12/14 01:01:46;;;;;;;4.10;1.88;;;15.30;79.00;;;;;;5056142;28;45307;-75
2021/12/14 01:04:18;;;;;;;3.95;1.50;;;15.40;78.60;;;;;;5065275;28;46602;-75
2021/12/14 01:06:46;;;;;;;3.75;1.73;;;15.40;78.80;;;;;;5065892;28;45292;-75
2021/12/14 01:09:18;;;;;;;4.30;1.60;;;15.40;79.40;;;;;;5074368;28;45165;-75
2021/12/14 01:11:47;;;;;;;7.30;1.42;;;15.40;79.30;;;;;;5071260;28;45290;-75
2021/12/14 01:14:18;;;;;;;3.15;1.58;;;15.40;79.80;;;;;;5059906;28;46461;-75
2021/12/14 01:16:54;;;;;;;4.57;1.90;;;15.30;78.60;;;;;;5065861;28;45454;-75
2021/12/14 01:19:26;;;;;;;4.32;1.80;;;15.20;80.90;;;;;;5065304;28;45317;-75
2021/12/14 01:25:01;;;;;;;3.10;1.65;;;15.30;80.90;;;;;;5064881;28;46413;-74
2021/12/14 01:27:33;;;;;;;2.17;1.45;;;15.20;80.30;;;;;;5049551;28;45596;-74
2021/12/14 01:30:05;;;;;;;6.28;1.52;;;15.20;81.90;;;;;;5066015;28;45284;-74
2021/12/14 01:32:35;;;;;;;2.88;1.48;;;15.20;81.10;;;;;;5069911;28;45268;-74
2021/12/14 01:35:10;;;;;;;4.72;1.50;;;15.30;81.10;;;;;;5065429;28;45231;-74
2021/12/14 01:37:42;;;;;;;5.47;1.70;;;15.30;81.20;;;;;;5062314;28;45221;-74
2021/12/14 01:40:29;;;;;;;2.58;1.58;;;15.30;80.00;;;;;;5066269;28;45252;-74
2021/12/14 01:42:57;;;;;;;4.68;1.50;;;15.30;78.70;;;;;;5064575;28;45229;-74
2021/12/14 01:45:26;;;;;;;2.28;1.50;;;15.30;79.40;;;;;;5066456;28;45237;-74
2021/12/14 01:47:57;;;;;;;2.05;1.50;;;15.40;78.20;;;;;;5065645;28;45286;-74
2021/12/14 01:50:28;;;;;;;3.40;1.83;;;15.00;79.60;;;;;;5064097;28;45410;-74
2021/12/14 01:52:56;;;;;;;2.85;1.80;;;14.80;79.80;;;;;;5065195;28;45405;-74
2021/12/14 01:55:28;;;;;;;4.78;2.03;;;14.80;82.00;;;;;;5065464;28;47705;-74
2021/12/14 01:57:56;;;;;;;3.58;1.83;;;15.00;80.30;;;;;;5067339;28;45390;-74
2021/12/14 02:00:33;;;;;;;3.30;2.30;;;15.10;80.40;;;;;;5068952;28;45281;-74
2021/12/14 02:03:01;;;;;;;4.32;2.17;;;15.10;80.40;;;;;;5056541;28;45493;-74
2021/12/14 02:05:33;;;;;;;4.57;2.47;;;15.00;80.20;;;;;;5065639;28;45563;-74
2021/12/14 02:08:04;;;;;;;7.20;2.60;;;14.90;81.20;;;;;;5065390;28;45626;-74
2021/12/14 02:10:36;;;;;;;3.63;2.20;;;15.10;81.30;;;;;;5065715;28;45321;-74
2021/12/14 02:13:03;;;;;;;4.90;2.25;;;15.00;81.40;;;;;;5065704;28;45240;-74
2021/12/14 02:15:34;;;;;;;4.53;2.70;;;15.20;81.30;;;;;;5063753;28;46530;-74
2021/12/14 02:18:06;;;;;;;3.88;2.40;;;15.20;80.30;;;;;;5065836;28;45277;-74
2021/12/14 02:20:38;;;;;;;4.43;2.60;;;15.30;80.80;;;;;;5069471;28;45246;-74
2021/12/14 02:23:09;;;;;;;3.10;2.17;;;15.00;80.90;;;;;;5069907;28;46092;-74
2021/12/14 02:25:36;;;;;;;5.05;2.85;;;15.20;81.00;;;;;;5068876;28;45408;-74
2021/12/14 02:28:11;;;;;;;5.18;3.05;;;15.20;79.80;;;;;;5067405;28;45552;-74
2021/12/14 02:30:40;;;;;;;5.82;2.97;;;15.20;80.40;;;;;;5068625;28;45380;-74
2021/12/14 02:33:14;;;;;;;3.47;2.50;;;15.00;79.80;;;;;;5071811;28;45483;-74
2021/12/14 02:35:42;;;;;;;7.32;2.85;;;15.10;79.80;;;;;;5068123;28;48189;-74
2021/12/14 02:38:12;;;;;;;5.53;3.10;;;15.20;80.90;;;;;;5069353;28;45502;-74
2021/12/14 02:43:29;;;;;;;5.70;3.28;;;15.00;79.50;;;;;;5063206;28;45674;-74
2021/12/14 02:46:04;;;;;;;7.18;3.08;;;15.10;80.60;;;;;;5067430;28;45426;-74
2021/12/14 02:48:31;;;;;;;5.40;3.00;;;15.20;80.90;;;;;;5067700;28;45323;-74
2021/12/14 02:51:05;;;;;;;4.72;2.97;;;15.30;79.40;;;;;;5067024;28;45261;-74
2021/12/14 02:53:33;;;;;;;4.43;3.00;;;15.30;79.80;;;;;;5066958;28;45419;-74
2021/12/14 02:56:00;;;;;;;4.93;3.00;;;15.30;78.10;;;;;;5073112;28;46450;-74
2021/12/14 02:58:27;;;;;;;7.43;2.97;;;15.30;79.30;;;;;;5078501;28;45229;-74
2021/12/14 03:00:56;;;;;;;5.28;3.10;;;15.30;79.30;;;;;;5075212;28;45348;-74
2021/12/14 03:03:23;;;;;;;7.75;3.10;;;15.10;79.90;;;;;;5067421;28;45320;-74
2021/12/14 03:05:50;;;;;;;5.18;3.03;;;15.20;79.90;;;;;;5068335;28;47684;-74
2021/12/14 03:08:22;;;;;;;6.53;3.40;;;15.20;80.90;;;;;;5067381;28;45341;-74
2021/12/14 03:10:58;;;;;;;5.20;3.03;;;15.10;80.20;;;;;;5067664;28;45448;-74
2021/12/14 03:13:30;;;;;;;5.70;3.22;;;15.10;81.40;;;;;;5074048;28;45340;-74
2021/12/14 03:15:59;;;;;;;7.70;3.40;;;15.30;79.60;;;;;;5062194;28;45575;-74
2021/12/14 03:18:30;;;;;;;6.75;3.55;;;15.20;79.60;;;;;;5068440;28;45359;-74
2021/12/14 03:21:00;;;;;;;9.27;4.00;;;15.10;80.30;;;;;;5068354;28;45300;-74
2021/12/14 03:23:30;;;;;;;7.68;4.10;;;15.00;80.70;;;;;;5062725;28;45375;-74
2021/12/14 03:26:00;;;;;;;5.93;3.75;;;15.10;80.30;;;;;;5067503;28;47255;-74
2021/12/14 03:28:29;;;;;;;7.82;3.97;;;15.10;78.80;;;;;;5066664;28;45220;-74
2021/12/14 03:31:18;;;;;;;8.15;3.97;;;15.20;80.50;;;;;;5065541;28;45478;-74
2021/12/14 03:33:48;;;;;;;6.82;3.63;;;15.20;78.70;;;;;;5066847;28;45332;-74
2021/12/14 03:36:17;;;;;;;8.38;3.85;;;15.10;79.40;;;;;;5067065;28;46316;-74
2021/12/14 03:38:50;;;;;;;9.10;3.88;;;15.10;80.10;;;;;;5067623;28;45437;-74
2021/12/14 03:41:20;;;;;;;7.95;4.20;;;15.20;79.30;;;;;;5062556;28;45343;-74
2021/12/14 03:43:57;;;;;;;7.65;4.00;;;15.20;79.20;;;;;;5068488;28;45485;-74
2021/12/14 03:46:25;;;;;;;7.60;4.10;;;15.10;80.10;;;;;;5067618;28;47341;-74
2021/12/14 03:48:52;;;;;;;6.65;4.30;;;15.10;80.20;;;;;;5067686;28;45205;-74
2021/12/14 03:51:20;;;;;;;9.45;4.20;;;15.10;78.70;;;;;;5066386;28;45363;-74
2021/12/14 03:53:50;;;;;;;7.65;4.40;;;15.20;78.60;;;;;;5067714;28;45384;-74
2021/12/14 03:56:19;;;;;;;10.32;4.25;;;15.20;80.50;;;;;;5067154;28;45471;-74
2021/12/14 03:58:47;;;;;;;8.45;5.13;;;15.30;79.10;;;;;;5073646;28;45896;-74
2021/12/14 04:01:17;;;;;;;13.10;5.53;;;15.00;80.00;;;;;;5067379;28;45343;-74
2021/12/14 04:03:45;;;;;;;8.52;4.95;;;14.80;81.20;;;;;;5078548;28;45507;-74
2021/12/14 04:06:14;;;;;;;9.80;4.90;;;14.50;83.40;;;;;;5070780;28;46186;-74
2021/12/14 04:08:41;;;;;;;8.52;5.50;;;14.60;83.30;;;;;;5067158;28;45150;-74
2021/12/14 04:11:10;;;;;;;7.15;4.78;;;14.80;82.10;;;;;;5064447;28;45409;-74
2021/12/14 04:13:40;;;;;;;8.45;5.30;;;14.90;82.10;;;;;;5066895;28;45375;-74
2021/12/14 04:16:09;;;;;;;9.35;4.82;;;14.90;81.20;;;;;;5065859;28;46168;-74
2021/12/14 04:18:36;;;;;;;9.10;5.38;;;15.00;79.50;;;;;;5066764;28;45507;-74
2021/12/14 04:21:05;;;;;;;8.25;5.07;;;15.10;80.00;;;;;;5066237;28;45291;-74
2021/12/14 04:23:36;;;;;;;8.07;5.22;;;15.00;80.80;;;;;;5068695;28;45303;-74
2021/12/14 04:26:05;;;;;;;11.60;5.80;;;15.00;80.00;;;;;;5066673;28;45219;-74
2021/12/14 04:28:36;;;;;;;10.27;5.63;;;15.10;79.70;;;;;;5066148;28;45323;-74
2021/12/14 04:31:04;;;;;;;9.80;5.47;;;14.90;79.60;;;;;;5066978;28;45177;-74
2021/12/14 04:33:35;;;;;;;12.27;5.50;;;14.80;82.10;;;;;;5067643;28;45296;-74
2021/12/14 04:36:05;;;;;;;7.50;5.05;;;15.00;81.50;;;;;;5066533;28;45568;-74
2021/12/14 04:38:42;;;;;;;9.45;5.63;;;15.10;80.20;;;;;;5065904;28;45857;-74
2021/12/14 04:52:21;;;;;;;10.07;6.03;;;15.00;80.50;;;;;;5064271;28;46188;-74
2021/12/14 04:54:50;;;;;;;7.53;5.18;;;15.10;82.70;;;;;;5067945;28;45439;-74
2021/12/14 04:57:21;;;;;;;8.60;5.40;;;15.10;81.60;;;;;;5077725;28;45296;-74
2021/12/14 04:59:48;;;;;;;8.00;4.97;;;14.90;81.70;;;;;;5079987;28;45395;-74
2021/12/14 05:02:20;;;;;;;11.88;6.18;;;15.00;81.50;;;;;;5066516;28;45146;-74
2021/12/14 05:04:47;;;;;;;11.20;5.97;;;15.10;80.90;;;;;;5065193;28;45332;-74
2021/12/14 05:07:44;;;;;;;9.98;5.85;;;15.20;79.10;;;;;;5065482;28;46211;-74
2021/12/14 05:10:16;;;;;;;11.82;5.85;;;15.00;80.50;;;;;;5066383;28;45283;-75
2021/12/14 05:12:44;;;;;;;9.60;5.47;;;15.00;80.90;;;;;;5065681;28;45346;-74
2021/12/14 05:17:50;;;;;;;9.23;5.25;;;14.50;84.00;;;;;;5255269;22;45703;-73
2021/12/14 05:20:19;;;;;;;8.55;5.53;;;14.50;86.10;;;;;;5125423;27;45223;-74
2021/12/14 05:22:47;;;;;;;8.98;5.63;;;14.80;84.90;;;;;;5126048;27;45268;-74
2021/12/14 05:25:21;;;;;;;9.07;5.38;;;14.60;85.50;;;;;;5127107;27;45438;-74
2021/12/14 05:27:52;;;;;;;10.70;5.80;;;14.70;86.80;;;;;;5115733;27;46550;-74
2021/12/14 05:30:24;;;;;;;7.63;5.05;;;14.40;86.30;;;;;;5118445;27;45570;-74
2021/12/14 05:32:58;;;;;;;10.60;5.80;;;14.40;87.10;;;;;;5125402;27;45426;-75
2021/12/14 05:35:25;;;;;;;9.85;6.00;;;14.50;85.60;;;;;;5126200;27;45197;-75
2021/12/14 05:37:54;;;;;;;8.07;4.97;;;14.40;87.50;;;;;;5120671;27;47147;-75
2021/12/14 05:40:40;;;;;;;8.98;5.40;;;14.40;89.20;;;;;;5126179;27;45492;-75
2021/12/14 05:43:08;;;;;;;9.15;5.35;;;14.50;88.50;;;;;;5125109;27;45515;-74
2021/12/14 05:45:38;;;;;;;10.70;4.93;;;14.60;89.00;;;;;;5121968;27;45369;-74
2021/12/14 05:48:08;;;;;;;9.32;5.00;;;14.70;87.00;;;;;;5119828;27;46352;-73
2021/12/14 05:50:38;;;;;;;8.30;4.70;;;14.90;84.70;;;;;;5125344;27;45383;-73
2021/12/14 05:53:07;;;;;;;8.68;5.10;;;14.80;84.50;;;;;;5126577;27;45272;-74
2021/12/14 05:55:37;;;;;;;6.63;4.45;;;14.70;87.50;;;;;;5130310;27;45270;-74
2021/12/14 05:58:11;;;;;;;10.63;4.72;;;14.80;86.40;;;;;;5133181;27;46988;-74
2021/12/14 06:00:43;;;;;;;7.38;4.75;;;14.70;86.50;;;;;;5128051;27;45336;-74
2021/12/14 06:03:18;;;;;;;6.88;4.35;;;14.80;85.00;;;;;;5113864;27;45358;-74
2021/12/14 06:05:45;;;;;;;6.45;4.05;;;14.80;82.70;;;;;;5128168;27;45282;-74
2021/12/14 06:08:22;;;;;;;6.65;4.10;;;14.80;83.40;;;;;;5128999;27;47569;-75
2021/12/14 06:10:50;;;;;;;7.82;4.55;;;14.80;81.80;;;;;;5129552;27;46089;-74
2021/12/14 06:13:18;;;;;;;7.30;4.28;;;14.60;82.40;;;;;;5127602;27;45464;-75
2021/12/14 06:15:45;;;;;;;10.20;4.45;;;14.70;84.60;;;;;;5129979;27;45521;-74
2021/12/14 06:18:13;;;;;;;6.85;4.35;;;14.80;86.30;;;;;;5128977;27;46165;-74
2021/12/14 06:20:43;;;;;;;7.10;4.13;;;14.70;85.90;;;;;;5124702;27;45217;-73
2021/12/14 06:23:10;;;;;;;7.97;4.93;;;14.70;84.60;;;;;;5128967;27;45282;-73
2021/12/14 06:25:37;;;;;;;5.18;3.80;;;14.40;86.30;;;;;;5130168;27;45716;-74
2021/12/14 06:28:04;;;;;;;6.13;3.90;;;14.40;87.10;;;;;;5129252;27;47339;-74
2021/12/14 06:30:34;;;;;;;7.68;4.40;;;14.40;88.40;;;;;;5127267;27;45305;-74
2021/12/14 06:33:05;;;;;;;5.47;3.72;;;14.70;87.90;;;;;;5130064;27;45354;-74
2021/12/14 06:35:36;;;;;;;5.68;4.03;;;15.00;86.80;;;;;;5128980;27;45365;-74
2021/12/14 06:38:30;;;;;;;6.90;4.63;;;14.70;86.60;;;;;;5129846;27;45451;-74
2021/12/14 06:41:05;;;;;;;7.22;4.50;;;14.80;87.20;;;;;;5118898;27;45248;-74
2021/12/14 06:43:35;;;;;;;5.60;3.85;;;14.40;88.40;;;;;;5138191;27;45331;-74
2021/12/14 06:46:06;;;;;;;6.93;3.65;;;14.50;87.40;;;;;;5129254;27;45381;-73
2021/12/14 06:48:39;;;;;;;8.90;4.15;;;14.90;87.60;;;;;;5130177;27;45621;-73
2021/12/14 06:51:09;;;;;;;7.80;4.30;;;15.00;85.70;;;;;;5129043;27;45257;-73
2021/12/14 06:53:38;;;;;;;6.50;4.65;;;14.90;86.50;;;;;;5126952;27;45284;-73
2021/12/14 06:56:08;;;;;;;6.13;3.88;;;14.60;85.20;;;;;;5123206;27;45371;-74
2021/12/14 06:58:39;;;;;;;8.02;4.15;;;14.60;89.00;;;;;;5123532;27;46423;-75
2021/12/14 07:02:01;;;;;;;7.53;4.80;;;14.50;87.90;;;;;;5118226;27;45345;-72
2021/12/14 07:04:31;;;;;;;7.20;3.90;;;14.20;90.70;;;;;;5118220;27;45670;-75
2021/12/14 07:10:22;;;;;;;6.05;4.05;;;13.80;90.20;;;;;;5112228;27;45632;-75
2021/12/14 07:16:21;;;;;;;5.75;3.67;;;13.70;90.90;;;;;;5116480;27;45458;-76
2021/12/14 07:18:52;;;;;;;6.72;4.15;;;13.90;90.90;;;;;;5122150;27;45450;-76
2021/12/14 07:21:38;;;;;;;5.88;3.67;;;14.20;88.40;;;;;;5128854;27;47423;-76
2021/12/14 07:24:31;;;;;;;6.45;4.10;;;14.30;91.10;;;;;;5122109;27;45311;-76
2021/12/14 07:27:30;;;;;;;5.57;3.58;;;14.40;87.00;;;;;;5122146;27;46341;-76
2021/12/14 07:30:12;;;;;;;6.15;3.97;;;14.40;87.50;;;;;;5045877;28;45525;-75
2021/12/14 07:32:46;;;;;;;5.95;4.38;;;14.40;87.60;;;;;;5110648;27;48116;-75
2021/12/14 07:35:31;;;;;;;6.28;3.85;;;14.20;88.80;;;;;;5124724;27;45401;-75
2021/12/14 07:38:02;;;;;;;10.40;4.32;;;14.10;90.00;;;;;;5117459;27;45519;-75
2021/12/14 07:40:36;;;;;;;6.10;4.25;;;14.00;90.10;;;;;;5113882;27;45531;-74
2021/12/14 07:43:11;;;;;;;7.80;4.25;;;13.90;90.50;;;;;;5114197;27;47965;-74
2021/12/14 07:45:39;;;;;;;9.57;4.15;;;14.20;90.30;;;;;;5124727;27;45915;-74
2021/12/14 07:48:06;;;;;;;5.35;3.75;;;14.60;90.10;;;;;;5128891;27;45146;-74
2021/12/14 07:50:47;;;;;;;5.25;3.75;;;14.50;88.90;;;;;;5122779;27;45309;-74
2021/12/14 07:53:14;;;;;;;6.65;3.60;;;14.70;88.60;;;;;;5122922;27;45256;-74
2021/12/14 07:55:44;;;;;;;7.18;4.20;;;14.90;86.40;;;;;;5119886;27;45327;-75
2021/12/14 07:58:13;;;;;;;5.70;3.78;;;14.80;84.80;;;;;;5128768;27;45151;-75
2021/12/14 08:00:42;;;;;;;5.03;3.75;;;14.60;86.40;;;;;;5124237;27;45469;-75
2021/12/14 08:03:10;;;;;;;6.13;3.78;;;14.70;86.40;;;;;;5122649;27;48210;-75
2021/12/14 08:05:40;;;;;;;6.50;3.72;;;14.50;87.00;;;;;;5123108;27;45660;-75
2021/12/14 08:08:15;;;;;;;5.40;3.63;;;14.40;87.60;;;;;;5119148;27;45299;-75
2021/12/14 08:10:47;;;;;;;5.90;3.72;;;14.10;88.80;;;;;;5127985;27;45249;-75
2021/12/14 08:13:19;;;;;;;7.40;4.30;;;14.00;91.40;;;;;;5132959;27;46340;-75
2021/12/14 08:15:50;;;;;;;6.63;4.10;;;14.20;88.10;;;;;;5120954;27;45525;-76
2021/12/14 08:18:21;;;;;;;6.53;3.85;;;14.00;90.00;;;;;;5121291;27;45424;-75
2021/12/14 08:20:53;;;;;;;7.53;3.92;;;14.20;89.40;;;;;;5125756;27;45301;-76
2021/12/14 08:23:23;;;;;;;6.78;3.80;;;14.30;90.10;;;;;;5124769;27;47680;-75
2021/12/14 08:25:54;;;;;;;5.18;3.80;;;14.40;89.10;;;;;;5129736;27;45855;-76
2021/12/14 08:28:22;;;;;;;5.97;3.70;;;14.60;86.60;;;;;;5130347;27;45328;-76
2021/12/14 08:30:59;;;;;;;8.43;4.55;;;14.30;87.80;;;;;;5124942;27;45132;-76
2021/12/14 08:33:29;;;;;;;7.38;4.35;;;14.40;87.60;;;;;;5126966;27;47456;-76
2021/12/14 08:36:00;;;;;;;7.03;4.28;;;14.30;88.20;;;;;;5123430;27;45221;-76
2021/12/14 08:38:30;;;;;;;6.95;4.20;;;14.30;87.20;;;;;;5123209;27;45270;-76
2021/12/14 08:41:08;;;;;;;5.88;4.07;;;14.00;88.20;;;;;;5127587;27;45364;-75
2021/12/14 08:43:46;;;;;;;6.57;4.13;;;14.20;89.30;;;;;;5128002;27;46632;-76
2021/12/14 08:46:16;;;;;;;7.18;4.13;;;14.40;88.00;;;;;;5128750;27;46120;-76
2021/12/14 08:48:47;;;;;;;8.45;4.55;;;14.60;85.80;;;;;;5123481;27;45165;-76
2021/12/14 08:51:17;;;;;;;7.38;4.32;;;14.40;86.80;;;;;;5130745;27;45541;-76
2021/12/14 08:53:49;;;;;;;6.57;4.25;;;14.40;88.30;;;;;;5129063;27;47077;-76
2021/12/14 08:56:18;;;;;;;6.93;4.63;;;14.60;89.40;;;;;;5129317;27;45937;-76
2021/12/14 08:58:50;;;;;;;8.13;4.57;;;14.40;87.20;;;;;;5129402;27;45312;-76
2021/12/14 09:01:21;;;;;;;6.90;4.88;;;14.50;89.10;;;;;;5129227;27;45170;-76
2021/12/14 09:03:54;;;;;;;5.70;4.15;;;14.20;88.10;;;;;;5127296;27;47060;-76
2021/12/14 09:06:24;;;;;;;6.75;4.15;;;14.10;89.50;;;;;;5124707;27;45258;-75
2021/12/14 09:08:52;;;;;;;6.78;4.50;;;14.60;89.30;;;;;;5122909;27;45338;-75
2021/12/14 09:11:23;;;;;;;6.63;4.43;;;14.50;87.60;;;;;;5127406;27;45481;-75
2021/12/14 09:13:52;;;;;;;11.98;4.72;;;14.30;86.80;;;;;;5128414;27;47444;-75
2021/12/14 09:16:23;;;;;;;6.85;4.20;;;14.30;87.40;;;;;;5128538;27;45225;-75
2021/12/14 09:18:54;;;;;;;5.68;3.75;;;14.50;90.00;;;;;;5128704;27;45285;-75
2021/12/14 09:21:25;;;;;;;6.68;4.00;;;14.60;87.30;;;;;;5129579;27;45367;-75
2021/12/14 09:23:58;;;;;;;8.32;4.70;;;14.70;88.20;;;;;;5142135;27;47545;-75
2021/12/14 09:26:27;;;;;;;6.82;4.05;;;14.50;86.80;;;;;;5129350;27;45835;-75
2021/12/14 09:28:56;;;;;;;5.97;4.00;;;14.10;89.50;;;;;;5128528;27;45146;-75
2021/12/14 09:31:27;;;;;;;8.30;4.68;;;14.40;87.50;;;;;;5128203;27;45217;-75
2021/12/14 09:33:58;;;;;;;8.55;4.80;;;14.20;88.00;;;;;;5129040;27;45549;-75
2021/12/14 09:36:25;;;;;;;8.00;5.28;;;14.30;87.60;;;;;;5129130;27;45153;-75
2021/12/14 09:38:56;;;;;;;8.70;4.35;;;14.50;88.20;;;;;;5127476;27;45611;-75
2021/12/14 09:41:26;;;;;;;5.30;4.00;;;14.50;88.00;;;;;;5129037;27;45230;-75
2021/12/14 09:43:54;;;;;;;6.82;4.32;;;14.40;89.20;;;;;;5129046;27;45587;-75
2021/12/14 09:46:24;;;;;;;7.47;4.50;;;14.40;87.40;;;;;;5127772;27;45276;-75
2021/12/14 09:48:54;;;;;;;6.25;4.07;;;14.60;86.70;;;;;;5128980;27;45339;-75
2021/12/14 09:51:24;;;;;;;6.28;3.83;;;14.70;85.80;;;;;;5125228;27;45196;-75
2021/12/14 09:53:57;;;;;;;6.32;4.00;;;14.50;88.50;;;;;;5125221;27;45383;-75
2021/12/14 09:56:27;;;;;;;5.68;3.72;;;14.80;84.80;;;;;;5128825;27;45539;-75
2021/12/14 09:58:59;;;;;;;6.35;4.30;;;14.90;85.40;;;;;;5129111;27;45433;-75
2021/12/14 10:01:31;;;;;;;9.75;4.85;;;14.70;85.70;;;;;;5128797;27;45180;-75
2021/12/14 10:04:06;;;;;;;7.45;4.43;;;14.50;86.60;;;;;;5126572;27;47949;-75
2021/12/14 10:06:34;;;;;;;10.52;4.55;;;14.30;86.10;;;;;;5119578;27;45173;-75
2021/12/14 10:09:07;;;;;;;8.65;4.47;;;14.40;87.30;;;;;;5127845;27;45243;-75
2021/12/14 10:11:43;;;;;;;7.63;3.72;;;14.70;86.70;;;;;;5128642;27;45387;-75
2021/12/14 10:14:13;;;;;;;6.97;4.47;;;14.80;84.60;;;;;;5123139;27;48546;-75
2021/12/14 10:16:42;;;;;;;10.32;4.85;;;14.60;85.70;;;;;;5118909;27;45386;-75
2021/12/14 10:19:13;;;;;;;9.05;4.38;;;14.80;86.20;;;;;;5120113;27;45389;-75
2021/12/14 10:21:43;;;;;;;7.55;4.40;;;14.90;85.60;;;;;;5128439;27;45152;-75
2021/12/14 10:24:11;;;;;;;10.93;4.60;;;15.00;84.70;;;;;;5126117;27;47761;-75
2021/12/14 10:26:44;;;;;;;6.28;4.10;;;14.80;84.60;;;;;;5123267;27;45322;-75
2021/12/14 10:29:12;;;;;;;8.20;4.93;;;14.60;87.90;;;;;;5128359;27;45316;-75
2021/12/14 10:31:45;;;;;;;7.68;4.88;;;14.80;85.00;;;;;;5129077;27;45135;-75
2021/12/14 10:34:17;;;;;;;7.00;4.30;;;14.80;83.50;;;;;;5127031;27;47873;-75
2021/12/14 10:36:48;;;;;;;5.55;3.90;;;14.70;85.60;;;;;;5128468;27;45864;-75
2021/12/14 10:39:35;;;;;;;7.22;4.28;;;14.80;85.90;;;;;;5128774;27;45177;-75
2021/12/14 10:44:52;;;;;;;7.53;4.65;;;15.00;84.30;;;;;;5128898;27;45794;-75
2021/12/14 10:47:23;;;;;;;8.90;4.40;;;15.00;84.70;;;;;;5130626;27;45529;-75
2021/12/14 10:49:51;;;;;;;7.40;4.13;;;15.10;83.80;;;;;;5128567;27;45319;-75
2021/12/14 10:52:22;;;;;;;8.82;4.35;;;15.10;84.40;;;;;;5130559;27;45318;-75
2021/12/14 10:54:55;;;;;;;8.07;4.47;;;15.10;84.50;;;;;;5132037;27;45738;-75
2021/12/14 10:57:25;;;;;;;5.25;3.67;;;15.00;83.90;;;;;;5127524;27;45506;-75
2021/12/14 10:59:55;;;;;;;6.10;4.03;;;15.10;85.40;;;;;;5123565;27;45397;-75
2021/12/14 11:02:25;;;;;;;6.60;4.35;;;15.20;84.70;;;;;;5130029;27;45469;-75
2021/12/14 11:04:57;;;;;;;7.55;4.60;;;15.20;83.80;;;;;;5131918;27;47283;-75
2021/12/14 11:07:28;;;;;;;7.15;4.75;;;15.20;83.50;;;;;;5131420;27;45350;-75
2021/12/14 11:10:07;;;;;;;6.97;4.22;;;15.00;83.70;;;;;;5129747;27;45191;-74
2021/12/14 11:12:37;;;;;;;5.75;4.18;;;14.90;83.90;;;;;;5130027;27;45610;-74
2021/12/14 11:15:08;;;;;;;9.57;4.53;;;14.80;84.20;;;;;;5127639;27;46350;-74
2021/12/14 11:20:26;;;;;;;7.50;4.38;;;14.80;84.90;;;;;;5130404;27;45216;-74
2021/12/14 11:23:00;;;;;;;10.70;4.97;;;14.90;83.60;;;;;;5130577;27;45126;-74
2021/12/14 11:25:29;;;;;;;6.63;4.30;;;14.80;83.60;;;;;;5128627;27;45242;-74
2021/12/14 11:28:00;;;;;;;6.80;4.55;;;14.80;84.80;;;;;;5120490;27;45306;-74
2021/12/14 11:30:30;;;;;;;7.78;4.25;;;14.70;85.20;;;;;;5130372;27;45375;-75
2021/12/14 11:33:10;;;;;;;7.55;4.53;;;14.60;85.20;;;;;;5130175;27;45269;-76
2021/12/14 11:35:40;;;;;;;9.13;4.68;;;14.00;85.50;;;;;;5124155;27;45527;-76
2021/12/14 11:38:22;;;;;;;8.48;4.25;;;14.10;89.40;;;;;;5130129;27;45415;-75
2021/12/14 11:40:50;;;;;;;8.98;5.32;;;14.50;87.10;;;;;;5131414;27;45267;-76
2021/12/14 11:43:20;;;;;;;10.68;4.78;;;14.40;86.60;;;;;;5131079;27;45270;-76
2021/12/14 11:45:48;;;;;;;5.80;4.05;;;14.40;87.60;;;;;;5129050;27;47005;-76
2021/12/14 11:48:28;;;;;;;9.20;5.15;;;14.60;86.80;;;;;;5129093;27;45173;-76
2021/12/14 11:50:57;;;;;;;10.52;4.30;;;14.60;85.40;;;;;;5123854;27;45170;-76
2021/12/14 11:53:24;;;;;;;9.98;5.03;;;14.70;85.90;;;;;;5127511;27;45234;-76
2021/12/14 11:55:54;;;;;;;7.55;5.03;;;14.70;85.20;;;;;;5130721;27;48157;-76
2021/12/14 11:58:33;;;;;;;7.43;4.50;;;14.80;85.00;;;;;;5130417;27;45236;-76
2021/12/14 12:01:11;;;;;;;11.57;5.15;;;14.50;86.30;;;;;;5130109;27;45390;-76
2021/12/14 12:03:45;;;;;;;9.30;5.13;;;14.60;85.90;;;;;;5130775;27;45505;-76
2021/12/14 12:06:34;;;;;;;7.80;4.00;;;14.70;85.40;;;;;;5130034;27;47859;-76
2021/12/14 12:11:53;;;;;;;11.00;5.15;;;14.80;85.10;;;;;;5128925;27;45589;-76
2021/12/14 12:14:24;;;;;;;7.38;4.47;;;14.70;85.50;;;;;;5129334;27;45581;-76
2021/12/14 12:16:53;;;;;;;9.30;5.53;;;14.60;85.30;;;;;;5115721;27;47688;-76
2021/12/14 12:19:24;;;;;;;8.88;4.90;;;14.80;84.90;;;;;;5128562;27;45182;-76
2021/12/14 12:21:52;;;;;;;9.00;4.88;;;14.80;84.70;;;;;;5130784;27;45513;-76
2021/12/14 12:24:38;;;;;;;8.48;4.68;;;14.80;84.80;;;;;;5128740;27;45360;-76
2021/12/14 12:27:35;;;;;;;8.93;4.93;;;14.70;85.90;;;;;;5127680;27;47861;-76
2021/12/14 12:30:33;;;;;;;6.85;4.78;;;14.70;84.90;;;;;;5128369;27;45372;-76
2021/12/14 12:33:07;;;;;;;9.52;5.53;;;14.90;84.90;;;;;;5129369;27;45371;-76
2021/12/14 12:35:38;;;;;;;8.60;5.13;;;14.70;84.50;;;;;;5128942;27;45381;-77
2021/12/14 12:38:24;;;;;;;7.90;4.78;;;14.50;85.70;;;;;;5128244;27;45264;-77
2021/12/14 12:40:54;;;;;;;8.18;5.00;;;14.70;86.40;;;;;;5130581;27;45175;-77
2021/12/14 12:43:27;;;;;;;11.18;5.15;;;14.70;85.30;;;;;;5129651;27;45214;-76
2021/12/14 12:46:13;;;;;;;11.45;5.35;;;14.70;85.40;;;;;;5129355;27;45292;-76
2021/12/14 12:48:58;;;;;;;9.27;4.85;;;14.80;85.30;;;;;;5118744;27;46866;-76
2021/12/14 12:52:02;;;;;;;8.07;4.97;;;14.80;85.90;;;;;;5130415;27;45215;-76
2021/12/14 12:54:47;;;;;;;10.65;4.97;;;14.80;85.60;;;;;;5109327;27;45188;-76
2021/12/14 12:57:31;;;;;;;7.97;5.10;;;14.80;84.90;;;;;;5121435;27;45270;-77
2021/12/14 13:00:27;;;;;;;9.40;5.65;;;14.80;84.40;;;;;;5129017;27;45988;-76
2021/12/14 13:02:59;;;;;;;10.70;5.00;;;14.80;85.30;;;;;;5119648;27;45345;-76
2021/12/14 13:05:31;;;;;;;10.10;4.88;;;14.90;85.40;;;;;;5129843;27;45732;-76
2021/12/14 13:08:09;;;;;;;9.93;4.93;;;14.90;85.00;;;;;;5130173;27;45249;-76
2021/12/14 13:10:39;;;;;;;11.23;5.45;;;15.00;85.10;;;;;;5129656;27;47904;-76
2021/12/14 13:13:11;;;;;;;10.27;5.57;;;14.90;83.80;;;;;;5129564;27;45257;-76
2021/12/14 13:15:51;;;;;;;8.77;5.07;;;14.70;84.40;;;;;;5129517;27;45312;-76
2021/12/14 13:18:25;;;;;;;10.73;5.65;;;14.70;86.10;;;;;;5129649;27;45253;-76
2021/12/14 13:20:55;;;;;;;10.43;5.35;;;14.80;85.60;;;;;;5128998;27;47224;-76
2021/12/14 13:23:50;;;;;;;10.93;5.38;;;14.90;85.30;;;;;;5143797;27;45286;-77
2021/12/14 13:26:29;;;;;;;8.57;4.75;;;14.80;85.40;;;;;;5137614;27;45110;-77
2021/12/14 13:29:01;;;;;;;11.82;5.15;;;14.80;84.20;;;;;;5127010;27;45325;-76
2021/12/14 13:31:31;;;;;;;7.80;4.93;;;14.80;85.00;;;;;;5120848;27;45993;-76
2021/12/14 13:33:59;;;;;;;13.30;5.15;;;14.60;85.60;;;;;;5129079;27;45223;-76
2021/12/14 13:36:27;;;;;;;7.57;4.50;;;14.80;84.30;;;;;;5128169;27;45410;-76
2021/12/14 13:38:56;;;;;;;14.68;5.80;;;14.80;84.00;;;;;;5126912;27;45283;-76
2021/12/14 13:41:48;;;;;;;11.85;5.43;;;14.90;84.70;;;;;;5129375;27;46544;-76
2021/12/14 13:44:16;;;;;;;9.20;5.03;;;14.80;85.30;;;;;;5128553;27;46200;-76
2021/12/14 13:46:45;;;;;;;8.77;4.88;;;14.80;85.50;;;;;;5128137;27;45391;-76